createdAt,value
2023-01-26T00:01:16.610Z,22.60
2023-01-26T00:03:43.591Z,19.70
2023-01-26T00:06:12.230Z,18.58
2023-01-26T00:08:40.382Z,16.85
2023-01-26T00:11:08.801Z,12.98
2023-01-26T00:13:35.704Z,14.20
2023-01-26T00:16:02.675Z,15.13
2023-01-26T00:18:29.979Z,16.33
2023-01-26T00:20:57.840Z,15.95
2023-01-26T00:23:25.001Z,16.83
2023-01-26T00:25:51.642Z,17.60
2023-01-26T00:28:18.075Z,17.52
2023-01-26T00:30:44.745Z,18.40
2023-01-26T00:33:11.641Z,19.42
2023-01-26T00:35:38.256Z,23.90
2023-01-26T00:38:05.052Z,19.83
2023-01-26T00:40:31.463Z,18.15
2023-01-26T00:42:59.157Z,21.10
2023-01-26T00:45:25.532Z,21.67
2023-01-26T00:47:51.976Z,18.50
2023-01-26T00:50:18.431Z,22.23
2023-01-26T00:52:44.816Z,17.60
2023-01-26T00:55:11.172Z,18.45
2023-01-26T00:57:40.665Z,17.40
2023-01-26T01:00:09.455Z,22.77
2023-01-26T01:02:36.259Z,17.63
2023-01-26T01:05:02.768Z,17.67
2023-01-26T01:07:29.211Z,20.92
2023-01-26T01:09:55.549Z,17.88
2023-01-26T01:12:21.935Z,20.40
2023-01-26T01:14:48.302Z,19.63
2023-01-26T01:17:14.657Z,14.90
2023-01-26T01:19:41.076Z,14.80
2023-01-26T01:22:07.626Z,15.23
2023-01-26T01:24:37.464Z,17.17
2023-01-26T01:27:04.142Z,14.85
2023-01-26T01:29:30.488Z,17.25
2023-01-26T01:31:57.070Z,16.10
2023-01-26T01:34:23.543Z,14.25
2023-01-26T01:36:49.940Z,10.88
2023-01-26T01:41:42.114Z,9.93
2023-01-26T01:44:18.887Z,8.95
2023-01-26T01:47:00.700Z,10.15
2023-01-26T01:49:34.510Z,9.15
2023-01-26T01:52:26.088Z,9.23
2023-01-26T01:54:56.039Z,9.32
2023-01-26T01:57:31.672Z,9.23
2023-01-26T02:00:05.236Z,8.00
2023-01-26T02:02:41.131Z,8.88
2023-01-26T02:05:17.645Z,9.43
2023-01-26T02:07:45.309Z,8.63
2023-01-26T02:10:20.959Z,9.50
2023-01-26T02:12:51.526Z,8.90
2023-01-26T02:15:17.897Z,10.18
2023-01-26T02:17:44.555Z,13.32
2023-01-26T02:20:37.925Z,8.50
2023-01-26T02:25:57.080Z,6.82
2023-01-26T02:28:26.581Z,7.85
2023-01-26T02:30:54.670Z,7.70
2023-01-26T02:33:27.089Z,6.68
2023-01-26T02:35:58.229Z,7.50
2023-01-26T02:38:29.120Z,6.43
2023-01-26T02:41:01.330Z,6.03
2023-01-26T02:45:55.377Z,5.03
2023-01-26T02:48:41.598Z,5.47
2023-01-26T02:51:08.228Z,5.70
2023-01-26T02:53:35.036Z,5.30
2023-01-26T02:56:01.728Z,5.47
2023-01-26T02:58:28.669Z,6.28
2023-01-26T03:00:55.674Z,5.70
2023-01-26T03:03:41.680Z,7.75
2023-01-26T03:06:12.728Z,7.53
2023-01-26T03:08:39.612Z,7.35
2023-01-26T03:11:07.552Z,7.38
2023-01-26T03:13:34.800Z,8.18
2023-01-26T03:16:06.699Z,5.82
2023-01-26T03:18:53.369Z,4.75
2023-01-26T03:21:40.184Z,4.70
2023-01-26T03:24:29.838Z,5.13
2023-01-26T03:27:15.023Z,4.95
2023-01-26T03:29:42.298Z,5.43
2023-01-26T03:32:10.083Z,5.28
2023-01-26T03:34:38.090Z,3.90
2023-01-26T03:37:05.400Z,3.33
2023-01-26T03:39:59.008Z,4.15
2023-01-26T03:42:45.142Z,3.95
2023-01-26T03:45:30.328Z,4.18
2023-01-26T03:48:24.398Z,4.05
2023-01-26T03:51:09.453Z,4.38
2023-01-26T03:53:54.792Z,5.82
2023-01-26T03:56:24.278Z,4.90
2023-01-26T03:58:56.039Z,5.32
2023-01-26T04:01:27.735Z,4.50
2023-01-26T04:04:15.884Z,6.47
2023-01-26T04:07:04.965Z,6.13
2023-01-26T04:09:32.780Z,7.03
2023-01-26T04:11:59.249Z,8.48
2023-01-26T04:14:50.106Z,8.55
2023-01-26T04:17:38.109Z,6.93
2023-01-26T04:20:26.877Z,9.60
2023-01-26T04:22:53.290Z,8.02
2023-01-26T04:25:21.850Z,7.55
2023-01-26T04:27:48.918Z,7.72
2023-01-26T04:30:17.217Z,8.07
2023-01-26T04:32:44.183Z,8.20
2023-01-26T04:35:10.748Z,7.00
2023-01-26T04:37:38.182Z,7.50
2023-01-26T04:40:06.635Z,11.85
2023-01-26T04:42:34.792Z,8.27
2023-01-26T04:45:03.212Z,7.38
2023-01-26T04:47:30.631Z,9.60
2023-01-26T04:49:58.038Z,9.05
2023-01-26T04:52:24.471Z,8.48
2023-01-26T04:54:51.166Z,7.90
2023-01-26T04:57:20.447Z,8.60
2023-01-26T04:59:49.482Z,9.53
2023-01-26T05:02:17.599Z,10.50
2023-01-26T05:04:44.188Z,9.32
2023-01-26T05:07:11.025Z,9.38
2023-01-26T05:09:38.272Z,8.98
2023-01-26T05:12:34.448Z,9.05
2023-01-26T05:15:21.054Z,7.47
2023-01-26T05:18:01.602Z,7.47
2023-01-26T05:20:43.201Z,6.70
2023-01-26T05:23:17.579Z,7.95
2023-01-26T05:26:06.990Z,8.30
2023-01-26T05:28:54.058Z,10.43
2023-01-26T05:31:20.556Z,9.10
2023-01-26T05:33:47.167Z,11.00
2023-01-26T05:36:19.061Z,11.70
2023-01-26T05:38:45.520Z,12.52
2023-01-26T05:41:11.916Z,13.52
2023-01-26T05:43:52.425Z,12.63
2023-01-26T05:46:34.336Z,12.02
2023-01-26T05:49:02.082Z,9.65
2023-01-26T05:51:29.063Z,13.10
2023-01-26T05:53:55.460Z,11.25
2023-01-26T05:56:22.292Z,12.35
2023-01-26T05:58:55.250Z,9.57
2023-01-26T06:01:21.690Z,12.60
2023-01-26T06:03:56.771Z,11.57
2023-01-26T06:06:24.141Z,11.23
2023-01-26T06:08:59.175Z,18.00
2023-01-26T06:11:33.183Z,13.23
2023-01-26T06:14:15.804Z,17.08
2023-01-26T06:16:42.951Z,12.48
2023-01-26T06:19:10.652Z,11.70
2023-01-26T06:21:37.794Z,10.77
2023-01-26T06:24:04.667Z,6.72
2023-01-26T06:26:31.693Z,8.73
2023-01-26T06:28:59.140Z,8.88
2023-01-26T06:31:30.540Z,14.03
2023-01-26T06:33:59.203Z,14.70
2023-01-26T06:36:28.158Z,10.90
2023-01-26T06:38:56.698Z,9.13
2023-01-26T06:41:23.747Z,8.68
2023-01-26T06:43:50.667Z,7.93
2023-01-26T06:46:18.039Z,11.20
2023-01-26T06:48:45.805Z,11.15
2023-01-26T06:51:15.396Z,8.57
2023-01-26T06:53:53.658Z,9.10
2023-01-26T06:56:31.215Z,12.27
2023-01-26T06:59:10.705Z,7.78
2023-01-26T07:01:57.469Z,11.10
2023-01-26T07:04:26.483Z,8.10
2023-01-26T07:06:52.830Z,9.02
2023-01-26T07:09:19.448Z,12.63
2023-01-26T07:11:45.776Z,11.88
2023-01-26T07:14:12.181Z,8.30
2023-01-26T07:16:38.616Z,8.02
2023-01-26T07:19:05.052Z,8.07
2023-01-26T07:21:31.446Z,9.50
2023-01-26T07:23:58.516Z,9.45
2023-01-26T07:26:24.989Z,8.52
2023-01-26T07:28:51.637Z,9.05
2023-01-26T07:31:18.166Z,11.43
2023-01-26T07:33:44.690Z,8.23
2023-01-26T07:36:11.183Z,9.05
2023-01-26T07:38:39.825Z,8.95
2023-01-26T07:41:08.456Z,7.45
2023-01-26T07:43:36.575Z,8.73
2023-01-26T07:46:08.484Z,9.07
2023-01-26T07:48:35.793Z,7.57
2023-01-26T07:51:03.925Z,7.80
2023-01-26T07:53:33.864Z,7.90
2023-01-26T07:56:11.834Z,9.38
2023-01-26T07:58:38.276Z,9.32
2023-01-26T08:01:14.900Z,10.20
2023-01-26T08:03:42.141Z,7.75
2023-01-26T08:06:11.771Z,9.27
2023-01-26T08:08:42.054Z,7.93
2023-01-26T08:11:11.117Z,8.35
2023-01-26T08:13:43.799Z,10.10
2023-01-26T08:16:14.984Z,8.30
2023-01-26T08:18:43.065Z,9.75
2023-01-26T08:21:11.438Z,13.35
2023-01-26T08:23:37.786Z,11.40
2023-01-26T08:26:07.609Z,11.05
2023-01-26T08:28:34.579Z,11.18
2023-01-26T08:31:11.241Z,9.27
2023-01-26T08:33:40.613Z,11.38
2023-01-26T08:36:13.151Z,9.40
2023-01-26T08:38:40.447Z,10.57
2023-01-26T08:41:08.076Z,9.18
2023-01-26T08:43:35.253Z,8.88
2023-01-26T08:46:02.097Z,8.15
2023-01-26T08:48:30.978Z,8.98
2023-01-26T08:51:00.012Z,9.10
2023-01-26T08:53:27.016Z,8.63
2023-01-26T08:55:53.359Z,7.80
2023-01-26T08:58:20.533Z,6.50
2023-01-26T09:00:47.257Z,10.48
2023-01-26T09:03:14.355Z,10.55
2023-01-26T09:05:41.271Z,9.20
2023-01-26T09:08:09.373Z,8.27
2023-01-26T09:10:39.946Z,9.40
2023-01-26T09:13:06.892Z,8.63
2023-01-26T09:15:33.410Z,8.80
2023-01-26T09:18:01.073Z,11.48
2023-01-26T09:20:28.561Z,15.27
2023-01-26T09:22:55.124Z,13.10
2023-01-26T09:25:21.714Z,15.45
2023-01-26T09:27:48.205Z,14.07
2023-01-26T09:30:15.114Z,13.57
2023-01-26T09:32:41.603Z,13.82
2023-01-26T09:35:14.383Z,12.88
2023-01-26T09:37:43.697Z,12.40
2023-01-26T09:40:30.921Z,14.88
2023-01-26T09:43:19.407Z,13.18
2023-01-26T09:46:05.655Z,13.60
2023-01-26T09:48:57.539Z,15.10
2023-01-26T09:51:32.474Z,11.63
2023-01-26T09:54:24.678Z,14.25
2023-01-26T09:56:51.081Z,13.95
2023-01-26T09:59:41.933Z,12.63
2023-01-26T10:02:11.321Z,14.23
2023-01-26T10:04:43.195Z,13.20
2023-01-26T10:07:12.688Z,12.27
2023-01-26T10:09:48.962Z,12.10
2023-01-26T10:12:15.602Z,10.93
2023-01-26T10:14:49.754Z,14.32
2023-01-26T10:17:25.175Z,12.85
2023-01-26T10:19:57.314Z,13.23
2023-01-26T10:22:55.087Z,8.18
2023-01-26T10:25:44.124Z,11.60
2023-01-26T10:28:14.119Z,10.35
2023-01-26T10:30:42.268Z,11.55
2023-01-26T10:33:36.061Z,12.63
2023-01-26T10:36:06.082Z,11.68
2023-01-26T10:38:32.430Z,10.02
2023-01-26T10:41:01.628Z,9.80
2023-01-26T10:43:28.198Z,10.20
2023-01-26T10:45:55.215Z,10.30
2023-01-26T10:48:24.284Z,9.07
2023-01-26T10:50:51.149Z,10.15
2023-01-26T10:53:28.205Z,11.13
2023-01-26T10:56:07.159Z,9.30
2023-01-26T10:58:59.985Z,9.00
2023-01-26T11:01:29.600Z,8.32
2023-01-26T11:04:05.984Z,9.82
2023-01-26T11:06:33.634Z,9.55
2023-01-26T11:09:11.974Z,8.35
2023-01-26T11:11:40.791Z,9.35
2023-01-26T11:14:19.071Z,9.02
2023-01-26T11:16:54.585Z,8.32
2023-01-26T11:19:40.154Z,9.05
2023-01-26T11:22:11.754Z,7.47
2023-01-26T11:24:59.619Z,8.27
2023-01-26T11:27:52.265Z,8.35
2023-01-26T11:30:56.323Z,7.20
2023-01-26T11:33:39.128Z,7.68
2023-01-26T11:36:27.348Z,7.72
2023-01-26T11:39:32.813Z,8.07
2023-01-26T11:42:24.968Z,7.47
2023-01-26T11:44:59.540Z,7.43
2023-01-26T11:47:44.270Z,7.40
2023-01-26T11:50:31.022Z,8.00
2023-01-26T11:53:41.386Z,8.85
2023-01-26T11:56:18.815Z,8.45
2023-01-26T11:58:52.157Z,11.05
2023-01-26T12:01:34.083Z,10.32
2023-01-26T12:04:00.715Z,10.93
2023-01-26T12:06:44.055Z,9.50
2023-01-26T12:09:52.576Z,11.02
2023-01-26T12:12:46.417Z,13.70
2023-01-26T12:15:17.939Z,13.68
2023-01-26T12:18:05.867Z,12.45
2023-01-26T12:20:50.632Z,11.40
2023-01-26T12:23:35.087Z,11.27
2023-01-26T12:26:13.541Z,13.95
2023-01-26T12:28:47.349Z,11.10
2023-01-26T12:31:30.648Z,10.25
2023-01-26T12:33:57.393Z,8.45
2023-01-26T12:36:41.838Z,8.52
2023-01-26T12:39:32.687Z,6.97
2023-01-26T12:42:10.359Z,7.82
2023-01-26T12:44:42.979Z,10.63
2023-01-26T12:47:19.643Z,9.15
2023-01-26T12:50:15.012Z,7.65
2023-01-26T12:53:01.174Z,8.25
2023-01-26T12:55:42.713Z,10.45
2023-01-26T12:58:18.534Z,10.70
2023-01-26T13:01:04.256Z,10.05
2023-01-26T13:03:41.660Z,9.20
2023-01-26T13:06:14.165Z,11.48
2023-01-26T13:08:51.469Z,10.00
2023-01-26T13:11:41.026Z,10.80
2023-01-26T13:14:42.650Z,12.38
2023-01-26T13:17:15.032Z,8.82
2023-01-26T13:19:44.453Z,11.32
2023-01-26T13:22:26.087Z,11.70
2023-01-26T13:24:55.579Z,10.40
2023-01-26T13:27:38.679Z,11.63
2023-01-26T13:33:18.391Z,10.45
2023-01-26T13:35:46.158Z,11.98
2023-01-26T13:38:23.838Z,12.63
2023-01-26T13:40:50.679Z,11.52
2023-01-26T13:43:26.231Z,12.85
2023-01-26T13:46:08.559Z,14.82
2023-01-26T13:48:51.757Z,13.50
2023-01-26T13:53:58.393Z,14.52
2023-01-26T13:56:40.301Z,17.23
2023-01-26T13:59:09.817Z,11.20
2023-01-26T14:01:47.434Z,13.95
2023-01-26T14:04:21.432Z,12.82
2023-01-26T14:07:04.529Z,13.05
2023-01-26T14:09:33.852Z,14.82
2023-01-26T14:12:05.177Z,13.95
2023-01-26T14:14:34.737Z,18.65
2023-01-26T14:17:05.853Z,14.15
2023-01-26T14:19:32.762Z,16.58
2023-01-26T14:22:00.792Z,16.70
2023-01-26T14:24:32.172Z,12.90
2023-01-26T14:26:59.251Z,13.27
2023-01-26T14:29:28.421Z,13.43
2023-01-26T14:31:57.635Z,14.95
2023-01-26T14:34:26.957Z,14.52
2023-01-26T14:37:14.098Z,17.45
2023-01-26T14:39:44.708Z,15.05
2023-01-26T14:42:21.471Z,13.65
2023-01-26T14:44:47.907Z,12.95
2023-01-26T14:47:30.160Z,13.38
2023-01-26T14:50:11.224Z,12.77
2023-01-26T14:52:39.679Z,16.00
2023-01-26T14:55:32.345Z,16.35
2023-01-26T14:58:01.816Z,14.18
2023-01-26T15:00:35.493Z,17.23
2023-01-26T15:03:07.338Z,15.77
2023-01-26T15:05:36.379Z,14.07
2023-01-26T15:08:05.413Z,17.30
2023-01-26T15:11:20.404Z,16.05
2023-01-26T15:13:51.977Z,14.13
2023-01-26T15:16:21.396Z,18.30
2023-01-26T15:19:01.751Z,16.25
2023-01-26T15:21:33.659Z,16.08
2023-01-26T15:24:00.890Z,18.97
2023-01-26T15:26:33.198Z,15.48
2023-01-26T15:29:04.904Z,16.77
2023-01-26T15:31:37.155Z,15.18
2023-01-26T15:34:04.913Z,14.50
2023-01-26T15:36:43.627Z,20.42
2023-01-26T15:39:14.542Z,17.77
2023-01-26T15:41:42.698Z,16.67
2023-01-26T15:44:19.109Z,19.73
2023-01-26T15:46:46.130Z,20.25
2023-01-26T15:49:15.496Z,17.65
2023-01-26T15:51:41.932Z,17.45
2023-01-26T15:54:11.254Z,15.48
2023-01-26T15:56:37.669Z,19.45
2023-01-26T15:59:04.044Z,20.35
2023-01-26T16:01:30.527Z,17.58
2023-01-26T16:03:56.891Z,22.38
2023-01-26T16:06:26.288Z,18.42
2023-01-26T16:08:54.458Z,16.10
2023-01-26T16:11:22.984Z,19.27
2023-01-26T16:14:02.338Z,18.95
2023-01-26T16:16:30.070Z,16.88
2023-01-26T16:18:56.852Z,20.35
2023-01-26T16:21:26.354Z,16.25
2023-01-26T16:23:52.885Z,20.30
2023-01-26T16:26:19.827Z,17.92
2023-01-26T16:28:47.053Z,19.20
2023-01-26T16:31:21.191Z,19.27
2023-01-26T16:33:49.062Z,17.35
2023-01-26T16:36:18.901Z,15.60
2023-01-26T16:38:46.034Z,19.92
2023-01-26T16:41:16.438Z,16.65
2023-01-26T16:43:43.423Z,16.35
2023-01-26T16:46:10.264Z,14.73
2023-01-26T16:48:41.034Z,23.48
2023-01-26T16:51:20.767Z,19.83
2023-01-26T16:53:48.006Z,20.17
2023-01-26T16:56:16.009Z,20.05
2023-01-26T16:58:42.751Z,18.38
2023-01-26T17:01:19.087Z,21.20
2023-01-26T17:03:46.054Z,19.98
2023-01-26T17:06:12.511Z,20.65
2023-01-26T17:08:40.241Z,18.63
2023-01-26T17:11:06.667Z,16.55
2023-01-26T17:13:33.256Z,27.92
2023-01-26T17:15:59.673Z,24.30
2023-01-26T17:18:26.046Z,22.83
2023-01-26T17:20:52.432Z,21.35
2023-01-26T17:23:18.948Z,23.83
2023-01-26T17:25:45.278Z,21.42
2023-01-26T17:28:11.785Z,22.90
2023-01-26T17:30:38.406Z,22.88
2023-01-26T17:33:04.925Z,18.80
2023-01-26T17:35:31.303Z,23.60
2023-01-26T17:37:57.720Z,18.98
2023-01-26T17:40:24.250Z,26.00
2023-01-26T17:42:50.857Z,25.73
2023-01-26T17:45:17.337Z,21.45
2023-01-26T17:47:44.080Z,21.75
2023-01-26T17:50:10.826Z,24.08
2023-01-26T17:52:37.407Z,22.75
2023-01-26T17:55:06.035Z,23.13
2023-01-26T17:57:32.872Z,24.27
2023-01-26T17:59:59.390Z,21.42
2023-01-26T18:02:25.913Z,26.48
2023-01-26T18:04:52.772Z,24.15
2023-01-26T18:07:19.256Z,20.50
2023-01-26T18:09:45.678Z,24.38
2023-01-26T18:12:12.090Z,23.60
2023-01-26T18:14:38.416Z,19.70
2023-01-26T18:17:04.873Z,20.23
2023-01-26T18:19:31.274Z,19.55
2023-01-26T18:21:57.821Z,19.05
2023-01-26T18:24:24.275Z,22.48
2023-01-26T18:26:50.905Z,21.65
2023-01-26T18:29:17.307Z,22.65
2023-01-26T18:31:43.776Z,21.08
2023-01-26T18:34:11.554Z,26.60
2023-01-26T18:36:38.086Z,25.02
2023-01-26T18:39:12.125Z,24.13
2023-01-26T18:41:40.966Z,22.85
2023-01-26T18:44:08.334Z,20.00
2023-01-26T18:46:35.153Z,23.80
2023-01-26T18:49:02.834Z,22.98
2023-01-26T18:51:36.681Z,22.95
2023-01-26T18:54:04.324Z,18.30
2023-01-26T18:56:31.232Z,21.33
2023-01-26T18:58:58.068Z,20.38
2023-01-26T19:01:25.793Z,22.27
2023-01-26T19:03:55.653Z,18.27
2023-01-26T19:06:24.536Z,20.77
2023-01-26T19:08:58.461Z,19.90
2023-01-26T19:11:30.832Z,24.38
2023-01-26T19:13:58.335Z,44.08
2023-01-26T19:16:25.691Z,31.25
2023-01-26T19:18:52.370Z,20.95
2023-01-26T19:21:24.229Z,20.60
2023-01-26T19:23:52.695Z,19.93
2023-01-26T19:26:21.566Z,19.23
2023-01-26T19:28:50.750Z,25.67
2023-01-26T19:31:19.306Z,23.58
2023-01-26T19:33:53.532Z,23.92
2023-01-26T19:36:20.406Z,22.92
2023-01-26T19:38:47.594Z,21.35
2023-01-26T19:41:14.667Z,20.92
2023-01-26T19:43:41.799Z,26.38
2023-01-26T19:46:09.287Z,23.08
2023-01-26T19:48:35.815Z,24.88
2023-01-26T19:51:04.354Z,23.88
2023-01-26T19:53:35.805Z,20.83
2023-01-26T19:56:10.656Z,24.35
2023-01-26T19:58:38.882Z,18.48
2023-01-26T20:01:10.065Z,22.67
2023-01-26T20:03:36.902Z,25.08
2023-01-26T20:06:04.858Z,20.45
2023-01-26T20:08:32.346Z,23.98
2023-01-26T20:11:07.720Z,21.45
2023-01-26T20:13:35.196Z,26.27
2023-01-26T20:16:03.478Z,24.25
2023-01-26T20:18:30.354Z,21.55
2023-01-26T20:20:58.881Z,26.92
2023-01-26T20:23:27.347Z,27.80
2023-01-26T20:26:08.692Z,31.85
2023-01-26T20:28:36.850Z,23.42
2023-01-26T20:31:16.354Z,25.13
2023-01-26T20:33:47.460Z,21.73
2023-01-26T20:36:19.212Z,26.30
2023-01-26T20:38:48.186Z,21.98
2023-01-26T20:41:18.127Z,20.63
2023-01-26T20:43:58.712Z,19.77
2023-01-26T20:46:29.265Z,25.50
2023-01-26T20:48:56.621Z,26.63
2023-01-26T20:51:26.803Z,22.73
2023-01-26T20:53:53.241Z,21.60
2023-01-26T20:56:21.266Z,29.50
2023-01-26T20:58:48.060Z,24.70
2023-01-26T21:01:16.658Z,21.60
2023-01-26T21:03:44.355Z,20.73
2023-01-26T21:06:13.873Z,28.05
2023-01-26T21:08:41.008Z,25.27
2023-01-26T21:11:12.013Z,27.10
2023-01-26T21:13:41.072Z,23.85
2023-01-26T21:16:13.040Z,20.60
2023-01-26T21:18:40.194Z,24.58
2023-01-26T21:21:10.121Z,20.70
2023-01-26T21:23:36.536Z,24.13
2023-01-26T21:26:06.035Z,25.92
2023-01-26T21:28:33.007Z,23.08
2023-01-26T21:31:08.370Z,23.70
2023-01-26T21:33:38.485Z,25.65
2023-01-26T21:36:07.800Z,28.55
2023-01-26T21:38:37.809Z,25.83
2023-01-26T21:41:28.761Z,25.42
2023-01-26T21:44:00.324Z,26.70
2023-01-26T21:46:27.265Z,27.70
2023-01-26T21:48:53.673Z,29.40
2023-01-26T21:51:39.448Z,26.27
2023-01-26T21:54:06.915Z,23.23
2023-01-26T21:56:34.426Z,23.75
2023-01-26T21:59:03.090Z,23.23
2023-01-26T22:01:35.047Z,30.02
2023-01-26T22:04:04.345Z,24.73
2023-01-26T22:06:31.013Z,21.45
2023-01-26T22:09:00.233Z,22.20
2023-01-26T22:11:27.822Z,21.17
2023-01-26T22:13:54.777Z,26.85
2023-01-26T22:16:21.982Z,23.38
2023-01-26T22:18:49.350Z,24.25
2023-01-26T22:21:16.490Z,20.35
2023-01-26T22:23:42.936Z,21.48
2023-01-26T22:26:11.701Z,22.63
2023-01-26T22:28:38.242Z,27.80
2023-01-26T22:31:07.558Z,24.70
2023-01-26T22:33:35.313Z,26.58
2023-01-26T22:36:05.733Z,26.10
2023-01-26T22:38:33.945Z,29.25
2023-01-26T22:41:01.304Z,24.33
2023-01-26T22:43:28.613Z,23.77
2023-01-26T22:45:55.365Z,22.10
2023-01-26T22:48:22.201Z,27.05
2023-01-26T22:50:48.562Z,23.38
2023-01-26T22:53:14.964Z,22.83
2023-01-26T22:55:42.463Z,23.10
2023-01-26T22:58:10.711Z,26.08
2023-01-26T23:00:40.158Z,24.40
2023-01-26T23:03:07.017Z,22.42
2023-01-26T23:05:34.178Z,25.00
2023-01-26T23:08:00.835Z,23.17
2023-01-26T23:10:28.094Z,23.55
2023-01-26T23:12:54.692Z,28.65
2023-01-26T23:15:21.440Z,27.20
2023-01-26T23:17:52.233Z,24.17
2023-01-26T23:20:19.984Z,23.75
2023-01-26T23:22:46.828Z,21.73
2023-01-26T23:25:32.067Z,23.88
2023-01-26T23:28:01.906Z,25.15
2023-01-26T23:30:29.029Z,23.45
2023-01-26T23:32:55.499Z,28.33
2023-01-26T23:35:21.856Z,20.73
2023-01-26T23:37:48.277Z,21.02
2023-01-26T23:40:15.188Z,23.85
2023-01-26T23:43:00.274Z,24.05
2023-01-26T23:45:28.073Z,22.45
2023-01-26T23:47:54.450Z,23.35
2023-01-26T23:50:20.934Z,27.42
2023-01-26T23:52:47.303Z,25.38
2023-01-26T23:55:13.715Z,22.05
2023-01-26T23:57:40.127Z,23.42
